Угольный

Карта отелей и гостиниц, располагающихся рядом с аэропортом Угольный :

Угольный
Анадырь
Чукотский автономный округ 64° 44' 5.82" N, 177° 44' 29.58" E
Код аэродрома ИКАО
UHMA
Код аэродрома RU
УХМА
Координаты
N64.73495° E177.74155°
Превышение над уровнем моря
59
Основная полоса
01/19
Курс магнитный
012,2/192,2
Длина основной ВПП
3500
Ширина основной ВПП
60
Покрытие основной ВПП
Твёрдое
Освещение ВПП
Постоянное
Тип: 
Аэродром
Класс аэродрома: 
Международный
Принадлежность: 
ГА
Статус: 
Действующий
Страна: 
Россия
Регион: 
Чукотский автономный округ
Город: 
Анадырь
Дополнительная информация: 
Военный индекс: ЬХМА/XHMA. Оператор: нет данных.
Схемы аэропортов: 
Погода: 

Авиационная погода в Угольном

Регион: 
Погода METAR: 
UHMA 221800Z 36003MPS 4100 -SN FEW023 SCT042 M21/M23 Q0990 R01/////// NOSIG RMK TDZ R01/36003G04MPS END R01/33001MPS QFE738/0985
Время наблюдения
2022-01-22T18:00:00Z
Температура C
-21.0
Точка росы
-23.0
Направление ветра
360
Скорость ветра (узлы)
6
Метео видимость
2.55
Облачность
FEW
SCT
Нижняя граница облачности (футы)
2300
4200
Явления погоды
-SN
Условия полета
IFR
Аэропорт подробнее: 
FEW – незначительная облачность; SCT – разбросанная отдельная облачность;
-SN – слабый снег;

Найти трансфер

С помощью этой формы Вы можете найти трансфер из аэропорта Угольный в город, аэропорт или вокзал:

Погода в аэропортах:

Авиационная погода в Череповце

Регион: 
Погода METAR: 
ULWC 221800Z 06002MPS 9999 -SN BKN010 M09/M11 Q1018 R03/490536 NOSIG RMK QFE753/1005
Время наблюдения
2022-01-22T18:00:00Z
Температура C
-9.0
Точка росы
-11.0
Направление ветра
60
Скорость ветра (узлы)
4
Метео видимость
6.21
Облачность
BKN
Нижняя граница облачности (футы)
1000
Явления погоды
-SN
Условия полета
MVFR
Аэропорт подробнее: 
BKN – значительная (рассеянная, разорванная) облачность;
-SN – слабый снег;

Авиационная погода в Москва - Шереметьево

Погода METAR: 
UUEE 221800Z 07004MPS 9000 4000NE -SN OVC008 M04/M06 Q1011 R06R/590530 R06C/590526 R06L/590530 NOSIG
Время наблюдения
2022-01-22T18:00:00Z
Температура C
-4.0
Точка росы
-6.0
Направление ветра
70
Скорость ветра (узлы)
8
Метео видимость
5.59
Облачность
OVC
Нижняя граница облачности (футы)
800
Явления погоды
-SN
Условия полета
IFR
Аэропорт подробнее: 
OVC – сплошная облачность;
-SN – слабый снег;

Авиационная погода в аэропорту Новый

Регион: 
Погода METAR: 
UHHH 221800Z 19001MPS 4200 FU NSC M29/M32 Q1027 R23R/090060 NOSIG RMK QFE764/1019
Время наблюдения
2022-01-22T18:00:00Z
Температура C
-29.0
Точка росы
-32.0
Направление ветра
190
Скорость ветра (узлы)
2
Метео видимость
2.61
Облачность
CLR
Нижняя граница облачности (футы)
Явления погоды
FU
Условия полета
IFR
Аэропорт подробнее: 
CLR — нет облаков ниже 3000 м
FU – дым (видимость менее 10 км);

Авиационная погода в Москва - Домодедово

Погода METAR: 
UUDD 221800Z 10003MPS 1400 1100S R14R/P2000U R14C/P2000D SN SCT008 M04/M06 Q1011 R14R/590335 R14C/590337 TEMPO 1200 SHSN SCT011CB
Время наблюдения
2022-01-22T18:00:00Z
Температура C
-4.0
Точка росы
-6.0
Направление ветра
100
Скорость ветра (узлы)
6
Метео видимость
0.87
Облачность
SCT
Нижняя граница облачности (футы)
800
Явления погоды
SN
Условия полета
LIFR
Аэропорт подробнее: 
SCT – разбросанная отдельная облачность;
SN – снег;